createdAt,value
2017-07-04T00:00:07.144Z,4.95
2017-07-04T00:02:34.682Z,5.37
2017-07-04T00:05:02.245Z,4.78
2017-07-04T00:07:29.806Z,3.90
2017-07-04T00:09:57.359Z,4.10
2017-07-04T00:12:24.932Z,4.50
2017-07-04T00:14:52.476Z,4.32
2017-07-04T00:17:20.010Z,4.60
2017-07-04T00:19:47.541Z,4.22
2017-07-04T00:22:15.094Z,4.10
2017-07-04T00:24:42.631Z,4.18
2017-07-04T00:27:10.191Z,4.00
2017-07-04T00:29:37.726Z,4.37
2017-07-04T00:32:05.283Z,4.37
2017-07-04T00:34:32.810Z,3.85
2017-07-04T00:37:00.373Z,3.70
2017-07-04T00:39:27.927Z,4.05
2017-07-04T00:41:55.467Z,4.30
2017-07-04T00:44:23.031Z,4.20
2017-07-04T00:46:50.568Z,3.72
2017-07-04T00:49:18.126Z,4.22
2017-07-04T00:51:45.655Z,4.75
2017-07-04T00:54:13.976Z,4.18
2017-07-04T00:56:41.505Z,4.20
2017-07-04T00:59:09.058Z,4.70
2017-07-04T01:01:36.586Z,4.10
2017-07-04T01:04:04.153Z,4.62
2017-07-04T01:06:31.681Z,3.75
2017-07-04T01:08:59.202Z,3.35
2017-07-04T01:11:26.750Z,3.20
2017-07-04T01:13:54.293Z,3.47
2017-07-04T01:16:22.597Z,3.42
2017-07-04T01:18:50.126Z,3.75
2017-07-04T01:21:18.434Z,4.50
2017-07-04T01:23:45.966Z,4.53
2017-07-04T01:26:14.274Z,4.12
2017-07-04T01:28:41.804Z,3.95
2017-07-04T01:31:10.113Z,3.90
2017-07-04T01:33:37.631Z,3.92
2017-07-04T01:36:05.183Z,3.80
2017-07-04T01:38:32.714Z,3.50
2017-07-04T01:41:00.263Z,3.50
2017-07-04T01:43:27.786Z,3.75
2017-07-04T01:45:55.344Z,3.22
2017-07-04T01:48:22.862Z,3.72
2017-07-04T01:50:50.387Z,3.65
2017-07-04T01:53:17.933Z,3.55
2017-07-04T01:55:45.477Z,3.30
2017-07-04T01:58:13.023Z,3.45
2017-07-04T02:00:41.309Z,3.72
2017-07-04T02:03:08.860Z,4.07
2017-07-04T02:05:37.166Z,5.35
2017-07-04T02:08:04.732Z,5.10
2017-07-04T02:10:32.258Z,5.93
2017-07-04T02:13:00.570Z,5.50
2017-07-04T02:15:28.098Z,5.10
2017-07-04T02:17:55.658Z,5.00
2017-07-04T02:20:23.949Z,5.78
2017-07-04T02:22:51.493Z,5.57
2017-07-04T02:25:19.814Z,5.05
2017-07-04T02:27:47.370Z,5.47
2017-07-04T02:30:14.931Z,5.43
2017-07-04T02:32:42.463Z,5.20
2017-07-04T02:35:10.006Z,5.03
2017-07-04T02:37:38.304Z,5.55
2017-07-04T02:40:05.881Z,5.37
2017-07-04T02:42:33.413Z,5.95
2017-07-04T02:45:00.972Z,5.10
2017-07-04T02:47:28.524Z,6.28
2017-07-04T02:49:56.087Z,5.07
2017-07-04T02:52:23.646Z,5.07
2017-07-04T02:54:51.183Z,4.35
2017-07-04T02:57:18.738Z,3.58
2017-07-04T02:59:46.272Z,3.25
2017-07-04T03:02:13.824Z,3.50
2017-07-04T03:04:41.345Z,2.90
2017-07-04T03:07:08.890Z,2.83
2017-07-04T03:09:36.425Z,2.95
2017-07-04T03:12:03.968Z,2.67
2017-07-04T03:14:31.507Z,2.80
2017-07-04T03:16:59.064Z,2.50
2017-07-04T03:19:26.594Z,2.97
2017-07-04T03:21:54.149Z,3.00
2017-07-04T03:24:21.690Z,2.50
2017-07-04T03:26:49.978Z,2.78
2017-07-04T03:29:18.294Z,3.30
2017-07-04T03:31:45.816Z,2.58
2017-07-04T03:34:14.138Z,3.12
2017-07-04T03:36:41.662Z,4.53
2017-07-04T03:39:09.202Z,4.82
2017-07-04T03:41:37.494Z,4.75
2017-07-04T03:44:05.045Z,5.12
2017-07-04T03:46:32.582Z,5.20
2017-07-04T03:49:00.133Z,4.40
2017-07-04T03:51:27.669Z,4.45
2017-07-04T03:53:55.241Z,4.50
2017-07-04T03:56:22.769Z,4.25
2017-07-04T03:58:50.305Z,3.62
2017-07-04T04:01:17.860Z,3.10
2017-07-04T04:03:45.387Z,3.20
2017-07-04T04:06:12.941Z,3.05
2017-07-04T04:08:40.469Z,2.92
2017-07-04T04:11:08.019Z,3.00
2017-07-04T04:13:35.559Z,2.60
2017-07-04T04:16:03.113Z,2.75
2017-07-04T04:18:30.650Z,2.83
2017-07-04T04:20:58.205Z,2.60
2017-07-04T04:23:25.762Z,2.65
2017-07-04T04:25:53.290Z,2.30
2017-07-04T04:28:20.843Z,3.35
2017-07-04T04:30:48.371Z,2.67
2017-07-04T04:33:15.922Z,2.70
2017-07-04T04:35:43.457Z,2.92
2017-07-04T04:38:11.018Z,2.62
2017-07-04T04:40:38.549Z,3.00
2017-07-04T04:43:06.090Z,3.00
2017-07-04T04:45:33.622Z,3.13
2017-07-04T04:48:01.186Z,3.47
2017-07-04T04:50:28.717Z,2.77
2017-07-04T04:52:56.247Z,2.90
2017-07-04T04:55:23.798Z,2.97
2017-07-04T04:57:51.338Z,3.33
2017-07-04T05:00:18.883Z,3.13
2017-07-04T05:02:46.409Z,2.90
2017-07-04T05:05:14.809Z,2.63
2017-07-04T05:07:42.355Z,2.70
2017-07-04T05:10:10.674Z,3.00
2017-07-04T05:12:38.216Z,2.70
2017-07-04T05:15:05.770Z,3.53
2017-07-04T05:17:33.298Z,2.90
2017-07-04T05:20:00.836Z,3.10
2017-07-04T05:22:28.391Z,4.27
2017-07-04T05:24:55.913Z,3.17
2017-07-04T05:27:23.471Z,3.08
2017-07-04T05:29:51.010Z,2.80
2017-07-04T05:32:19.320Z,3.10
2017-07-04T05:34:46.851Z,3.00
2017-07-04T05:37:15.170Z,3.20
2017-07-04T05:39:42.712Z,3.30
2017-07-04T05:42:10.244Z,3.37
2017-07-04T05:44:38.595Z,3.20
2017-07-04T05:47:06.160Z,3.60
2017-07-04T05:49:33.713Z,3.57
2017-07-04T05:52:01.242Z,3.60
2017-07-04T05:54:28.807Z,3.33
2017-07-04T05:56:56.357Z,3.63
2017-07-04T05:59:23.902Z,3.00
2017-07-04T06:01:51.438Z,3.23
2017-07-04T06:04:19.008Z,2.90
2017-07-04T06:06:46.543Z,3.20
2017-07-04T06:09:14.872Z,3.13
2017-07-04T06:11:42.415Z,2.73
2017-07-04T06:14:09.963Z,3.37
2017-07-04T06:16:37.507Z,3.33
2017-07-04T06:19:05.835Z,3.37
2017-07-04T06:21:33.365Z,3.17
2017-07-04T06:24:00.922Z,2.77
2017-07-04T06:26:28.462Z,3.30
2017-07-04T06:28:56.745Z,3.10
2017-07-04T06:31:25.053Z,3.33
2017-07-04T06:33:52.574Z,3.20
2017-07-04T06:36:20.926Z,3.27
2017-07-04T06:38:48.450Z,3.30
2017-07-04T06:41:16.019Z,3.20
2017-07-04T06:43:43.550Z,3.73
2017-07-04T06:46:11.103Z,4.30
2017-07-04T06:48:38.637Z,4.13
2017-07-04T06:51:06.946Z,3.37
2017-07-04T06:53:34.474Z,3.60
2017-07-04T06:56:02.793Z,3.97
2017-07-04T06:58:30.321Z,4.00
2017-07-04T07:00:58.617Z,4.10
2017-07-04T07:03:26.138Z,4.33
2017-07-04T07:05:54.458Z,4.10
2017-07-04T07:08:21.983Z,4.10
2017-07-04T07:10:50.281Z,3.87
2017-07-04T07:13:17.847Z,4.30
2017-07-04T07:15:45.494Z,3.57
2017-07-04T07:18:13.047Z,3.30
2017-07-04T07:20:41.339Z,3.70
2017-07-04T07:23:08.902Z,3.73
2017-07-04T07:25:36.430Z,3.70
2017-07-04T07:28:03.979Z,3.10
2017-07-04T07:30:31.507Z,3.30
2017-07-04T07:32:59.066Z,3.70
2017-07-04T07:35:26.608Z,3.30
2017-07-04T07:37:54.169Z,3.93
2017-07-04T07:40:21.696Z,3.50
2017-07-04T07:42:50.002Z,3.27
2017-07-04T07:45:17.549Z,3.30
2017-07-04T07:47:45.073Z,3.30
2017-07-04T07:50:12.622Z,3.13
2017-07-04T07:52:40.151Z,3.20
2017-07-04T07:55:07.715Z,3.13
2017-07-04T07:57:35.254Z,3.60
2017-07-04T08:00:02.804Z,3.20
2017-07-04T08:02:30.324Z,3.60
2017-07-04T08:04:57.882Z,3.40
2017-07-04T08:07:25.410Z,3.30
2017-07-04T08:09:52.980Z,3.37
2017-07-04T08:12:20.518Z,3.43
2017-07-04T08:14:48.050Z,3.60
2017-07-04T08:17:15.599Z,3.30
2017-07-04T08:19:43.123Z,3.60
2017-07-04T08:22:10.680Z,3.10
2017-07-04T08:24:38.312Z,3.70
2017-07-04T08:27:05.853Z,3.10
2017-07-04T08:29:33.386Z,3.10
2017-07-04T08:32:04.470Z,3.40
2017-07-04T08:34:32.001Z,3.13
2017-07-04T08:36:59.551Z,3.20
2017-07-04T08:39:27.094Z,2.90
2017-07-04T08:41:55.433Z,3.90
2017-07-04T08:44:22.954Z,3.00
2017-07-04T08:46:50.493Z,2.60
2017-07-04T08:49:21.787Z,2.63
2017-07-04T08:51:49.309Z,2.73
2017-07-04T08:54:17.619Z,2.60
2017-07-04T08:56:45.141Z,2.23
2017-07-04T08:59:13.457Z,2.40
2017-07-04T09:01:40.983Z,2.63
2017-07-04T09:04:09.300Z,2.80
2017-07-04T09:06:36.842Z,2.80
2017-07-04T09:09:04.397Z,2.60
2017-07-04T09:11:31.922Z,2.47
2017-07-04T09:14:00.234Z,1.93
2017-07-04T09:16:27.763Z,2.13
2017-07-04T09:18:56.068Z,1.90
2017-07-04T09:21:23.606Z,2.17
2017-07-04T09:23:51.144Z,1.80
2017-07-04T09:26:18.698Z,1.53
2017-07-04T09:28:46.231Z,1.60
2017-07-04T09:31:13.778Z,1.73
2017-07-04T09:33:41.572Z,1.87
2017-07-04T09:36:09.152Z,1.77
2017-07-04T09:38:37.478Z,1.70
2017-07-04T09:41:05.019Z,1.73
2017-07-04T09:43:32.542Z,2.40
2017-07-04T09:46:00.086Z,1.77
2017-07-04T09:48:27.603Z,1.90
2017-07-04T09:50:58.091Z,2.43
2017-07-04T09:53:26.410Z,1.97
2017-07-04T09:55:53.933Z,2.10
2017-07-04T09:58:21.536Z,2.03
2017-07-04T10:00:49.115Z,2.50
2017-07-04T10:03:16.698Z,2.30
2017-07-04T10:05:44.233Z,2.50
2017-07-04T10:08:11.788Z,2.80
2017-07-04T10:10:39.435Z,1.87
2017-07-04T10:13:06.987Z,2.20
2017-07-04T10:15:34.551Z,2.37
2017-07-04T10:18:02.099Z,2.20
2017-07-04T10:20:29.626Z,2.27
2017-07-04T10:22:57.922Z,2.30
2017-07-04T10:25:25.466Z,2.50
2017-07-04T10:27:52.998Z,2.63
2017-07-04T10:30:20.544Z,2.33
2017-07-04T10:32:48.067Z,2.60
2017-07-04T10:35:15.633Z,2.17
2017-07-04T10:37:43.211Z,2.20
2017-07-04T10:40:10.754Z,2.40
2017-07-04T10:42:38.421Z,2.77
2017-07-04T10:45:05.966Z,2.70
2017-07-04T10:47:33.529Z,2.53
2017-07-04T10:50:01.086Z,2.63
2017-07-04T10:52:28.609Z,2.40
2017-07-04T10:54:56.150Z,2.93
2017-07-04T10:57:23.691Z,2.27
2017-07-04T10:59:51.218Z,2.70
2017-07-04T11:02:18.813Z,2.87
2017-07-04T11:04:46.345Z,2.83
2017-07-04T11:07:13.885Z,2.73
2017-07-04T11:09:41.404Z,2.40
2017-07-04T11:12:08.956Z,3.13
2017-07-04T11:14:36.501Z,3.00
2017-07-04T11:17:04.059Z,2.83
2017-07-04T11:19:31.646Z,2.73
2017-07-04T11:21:59.217Z,2.40
2017-07-04T11:24:26.739Z,2.90
2017-07-04T11:26:54.259Z,2.90
2017-07-04T11:29:21.803Z,2.87
2017-07-04T11:31:50.094Z,3.27
2017-07-04T11:34:17.635Z,2.80
2017-07-04T11:36:45.934Z,2.97
2017-07-04T11:39:13.490Z,3.27
2017-07-04T11:41:41.019Z,3.10
2017-07-04T11:44:08.570Z,3.33
2017-07-04T11:46:36.098Z,3.27
2017-07-04T11:49:03.651Z,2.93
2017-07-04T11:51:31.183Z,3.00
2017-07-04T11:53:58.748Z,3.00
2017-07-04T11:56:26.269Z,2.63
2017-07-04T11:58:53.806Z,2.80
2017-07-04T12:01:21.361Z,2.87
2017-07-04T12:03:48.896Z,3.10
2017-07-04T12:06:16.470Z,3.20
2017-07-04T12:08:43.998Z,3.10
2017-07-04T12:11:11.546Z,3.30
2017-07-04T12:13:39.856Z,3.30
2017-07-04T12:16:07.402Z,2.93
2017-07-04T12:18:34.930Z,3.30
2017-07-04T12:21:03.264Z,3.00
2017-07-04T12:23:30.810Z,3.43
2017-07-04T12:25:58.353Z,2.70
2017-07-04T12:28:25.877Z,3.37
2017-07-04T12:30:53.438Z,2.97
2017-07-04T12:33:20.955Z,3.10
2017-07-04T12:35:48.486Z,2.80
2017-07-04T12:38:16.026Z,2.80
2017-07-04T12:40:44.309Z,3.37
2017-07-04T12:43:11.854Z,3.43
2017-07-04T12:45:40.145Z,2.90
2017-07-04T12:48:07.696Z,3.10
2017-07-04T12:50:36.009Z,3.07
2017-07-04T12:53:03.565Z,3.13
2017-07-04T12:55:31.081Z,3.00
2017-07-04T12:57:59.406Z,2.87
2017-07-04T13:00:26.928Z,2.53
2017-07-04T13:02:55.263Z,2.73
2017-07-04T13:05:22.790Z,2.63
2017-07-04T13:07:50.315Z,2.43
2017-07-04T13:10:18.634Z,2.67
2017-07-04T13:12:46.163Z,2.80
2017-07-04T13:15:14.483Z,2.80
2017-07-04T13:17:42.042Z,2.80
2017-07-04T13:20:09.590Z,2.73
2017-07-04T13:22:37.126Z,3.00
2017-07-04T13:25:04.678Z,2.93
2017-07-04T13:27:32.215Z,3.00
2017-07-04T13:30:00.539Z,2.50
2017-07-04T13:32:28.059Z,2.90
2017-07-04T13:34:56.394Z,2.90
2017-07-04T13:37:23.922Z,2.50
2017-07-04T13:39:51.458Z,3.20
2017-07-04T13:42:19.772Z,3.40
2017-07-04T13:44:47.301Z,2.43
2017-07-04T13:47:15.638Z,2.60
2017-07-04T13:49:43.168Z,3.10
2017-07-04T13:52:10.710Z,2.83
2017-07-04T13:54:38.235Z,2.90
2017-07-04T13:57:06.575Z,2.87
2017-07-04T13:59:34.102Z,3.00
2017-07-04T14:02:01.655Z,2.50
2017-07-04T14:04:29.190Z,2.60
2017-07-04T14:06:57.530Z,2.30
2017-07-04T14:09:25.062Z,2.80
2017-07-04T14:11:52.623Z,3.00
2017-07-04T14:14:20.143Z,2.70
2017-07-04T14:16:47.667Z,2.30
2017-07-04T14:19:15.226Z,2.77
2017-07-04T14:21:42.785Z,2.40
2017-07-04T14:24:10.317Z,2.60
2017-07-04T14:26:37.834Z,2.60
2017-07-04T14:29:06.145Z,2.60
2017-07-04T14:31:33.679Z,2.73
2017-07-04T14:34:02.002Z,2.67
2017-07-04T14:36:29.627Z,2.60
2017-07-04T14:38:57.942Z,2.70
2017-07-04T14:41:25.537Z,2.70
2017-07-04T14:43:53.171Z,2.70
2017-07-04T14:46:20.700Z,2.30
2017-07-04T14:48:48.232Z,2.50
2017-07-04T14:51:20.258Z,2.70
2017-07-04T14:53:47.773Z,2.50
2017-07-04T14:56:15.308Z,2.30
2017-07-04T14:58:43.661Z,2.67
2017-07-04T15:01:11.986Z,2.47
2017-07-04T15:03:39.535Z,2.77
2017-07-04T15:06:07.059Z,2.40
2017-07-04T15:08:34.609Z,2.40
2017-07-04T15:11:02.158Z,2.40
2017-07-04T15:13:29.683Z,2.23
2017-07-04T15:15:57.242Z,2.00
2017-07-04T15:18:24.771Z,2.30
2017-07-04T15:20:52.295Z,2.20
2017-07-04T15:23:19.842Z,2.60
2017-07-04T15:25:47.367Z,2.30
2017-07-04T15:28:15.682Z,2.10
2017-07-04T15:30:43.206Z,2.47
2017-07-04T15:33:11.530Z,2.70
2017-07-04T15:35:39.067Z,2.47
2017-07-04T15:38:06.587Z,2.90
2017-07-04T15:40:34.892Z,3.07
2017-07-04T15:43:02.412Z,2.80
2017-07-04T15:45:30.735Z,2.27
2017-07-04T15:47:58.253Z,2.37
2017-07-04T15:50:26.575Z,2.07
2017-07-04T15:52:54.089Z,2.20
2017-07-04T15:55:22.378Z,2.20
2017-07-04T15:57:50.690Z,2.50
2017-07-04T16:00:20.123Z,2.33
2017-07-04T16:02:47.651Z,2.30
2017-07-04T16:05:15.183Z,2.30
2017-07-04T16:07:42.741Z,2.63
2017-07-04T16:10:10.423Z,2.07
2017-07-04T16:12:37.947Z,2.30
2017-07-04T16:15:06.255Z,2.30
2017-07-04T16:17:33.773Z,2.37
2017-07-04T16:20:02.100Z,1.93
2017-07-04T16:22:29.645Z,2.23
2017-07-04T16:24:57.827Z,2.07
2017-07-04T16:27:25.394Z,2.33
2017-07-04T16:29:52.924Z,2.20
2017-07-04T16:32:20.477Z,2.40
2017-07-04T16:34:48.759Z,1.83
2017-07-04T16:37:16.299Z,2.10
2017-07-04T16:39:44.590Z,2.70
2017-07-04T16:42:12.912Z,2.37
2017-07-04T16:44:40.450Z,2.40
2017-07-04T16:47:07.984Z,2.00
2017-07-04T16:49:36.293Z,1.97
2017-07-04T16:52:03.840Z,2.10
2017-07-04T16:54:31.373Z,2.47
2017-07-04T16:56:59.695Z,2.20
2017-07-04T16:59:27.242Z,2.20
2017-07-04T17:01:54.767Z,2.03
2017-07-04T17:04:23.088Z,2.60
2017-07-04T17:06:50.612Z,2.23
2017-07-04T17:09:18.158Z,1.83
2017-07-04T17:11:56.652Z,2.50
2017-07-04T17:14:24.204Z,2.03
2017-07-04T17:16:51.767Z,2.50
2017-07-04T17:19:20.196Z,2.40
2017-07-04T17:21:47.755Z,2.30
2017-07-04T17:24:18.703Z,2.73
2017-07-04T17:26:46.243Z,2.37
2017-07-04T17:29:13.762Z,1.97
2017-07-04T17:31:41.323Z,2.47
2017-07-04T17:34:08.855Z,2.63
2017-07-04T17:36:36.392Z,2.50
2017-07-04T17:39:03.936Z,2.50
2017-07-04T17:41:32.222Z,2.30
2017-07-04T17:43:59.768Z,2.33
2017-07-04T17:46:34.480Z,2.20
2017-07-04T17:49:02.765Z,2.70
2017-07-04T17:51:31.087Z,2.40
2017-07-04T17:54:04.576Z,2.40
2017-07-04T17:56:35.544Z,2.73
2017-07-04T17:59:03.089Z,2.60
2017-07-04T18:01:30.803Z,2.60
2017-07-04T18:03:59.200Z,2.47
2017-07-04T18:06:26.734Z,2.27
2017-07-04T18:08:55.078Z,2.80
2017-07-04T18:11:26.659Z,2.50
2017-07-04T18:13:54.194Z,2.60
2017-07-04T18:16:21.743Z,2.30
2017-07-04T18:18:49.360Z,2.63
2017-07-04T18:21:17.105Z,2.50
2017-07-04T18:23:44.681Z,2.30
2017-07-04T18:26:12.249Z,2.80
2017-07-04T18:28:39.801Z,2.20
2017-07-04T18:31:09.234Z,2.90
2017-07-04T18:33:40.438Z,4.23
2017-07-04T18:36:08.722Z,3.73
2017-07-04T18:38:37.042Z,3.80
2017-07-04T18:41:07.648Z,3.83
2017-07-04T18:43:35.176Z,4.00
2017-07-04T18:46:04.401Z,3.43
2017-07-04T18:48:35.651Z,3.40
2017-07-04T18:51:03.238Z,3.83
2017-07-04T18:53:30.782Z,3.13
2017-07-04T18:55:58.395Z,3.17
2017-07-04T18:58:26.700Z,2.80
2017-07-04T19:00:54.263Z,3.17
2017-07-04T19:03:21.808Z,3.00
2017-07-04T19:05:52.981Z,3.37
2017-07-04T19:08:20.526Z,3.30
2017-07-04T19:10:48.057Z,3.23
2017-07-04T19:13:16.374Z,3.80
2017-07-04T19:15:43.915Z,2.97
2017-07-04T19:18:11.474Z,4.00
2017-07-04T19:20:39.011Z,4.53
2017-07-04T19:23:06.580Z,4.20
2017-07-04T19:25:34.974Z,3.70
2017-07-04T19:28:02.542Z,3.80
2017-07-04T19:30:30.085Z,3.10
2017-07-04T19:32:57.630Z,3.20
2017-07-04T19:35:25.928Z,3.13
2017-07-04T19:37:53.560Z,3.07
2017-07-04T19:40:21.878Z,3.00
2017-07-04T19:42:49.413Z,3.23
2017-07-04T19:45:16.983Z,3.17
2017-07-04T19:47:44.574Z,2.87
2017-07-04T19:50:12.149Z,3.43
2017-07-04T19:52:39.675Z,2.90
2017-07-04T19:55:07.282Z,3.43
2017-07-04T19:57:34.882Z,3.13
2017-07-04T20:00:02.538Z,3.00
2017-07-04T20:02:30.097Z,2.70
2017-07-04T20:04:57.654Z,3.33
2017-07-04T20:07:25.191Z,3.07
2017-07-04T20:09:53.532Z,3.43
2017-07-04T20:12:21.147Z,3.50
2017-07-04T20:14:48.720Z,14.50
2017-07-04T20:17:16.299Z,6.00
2017-07-04T20:19:43.847Z,3.90
2017-07-04T20:22:11.478Z,4.03
2017-07-04T20:24:39.079Z,3.90
2017-07-04T20:27:06.638Z,3.93
2017-07-04T20:29:34.162Z,3.60
2017-07-04T20:32:01.715Z,4.13
2017-07-04T20:34:29.242Z,3.50
2017-07-04T20:36:56.778Z,3.90
2017-07-04T20:39:24.324Z,4.10
2017-07-04T20:41:51.909Z,3.47
2017-07-04T20:44:19.473Z,3.50
2017-07-04T20:46:47.108Z,4.00
2017-07-04T20:49:14.653Z,5.30
2017-07-04T20:51:42.182Z,4.87
2017-07-04T20:54:09.735Z,4.67
2017-07-04T20:56:38.238Z,5.10
2017-07-04T20:59:05.823Z,3.80
2017-07-04T21:01:33.389Z,4.07
2017-07-04T21:04:00.956Z,4.70
2017-07-04T21:06:28.493Z,5.50
2017-07-04T21:08:56.082Z,4.50
2017-07-04T21:11:23.600Z,4.50
2017-07-04T21:13:51.253Z,3.80
2017-07-04T21:16:18.899Z,4.23
2017-07-04T21:18:46.430Z,4.23
2017-07-04T21:21:14.008Z,4.57
2017-07-04T21:23:41.531Z,4.53
2017-07-04T21:26:09.133Z,4.30
2017-07-04T21:28:36.637Z,4.23
2017-07-04T21:31:04.637Z,4.37
2017-07-04T21:33:32.170Z,3.80
2017-07-04T21:35:59.874Z,3.60
2017-07-04T21:38:28.183Z,4.70
2017-07-04T21:40:55.740Z,4.10
2017-07-04T21:43:23.281Z,3.97
2017-07-04T21:45:51.432Z,3.60
2017-07-04T21:48:19.099Z,4.25
2017-07-04T21:50:46.683Z,3.83
2017-07-04T21:53:14.243Z,3.67
2017-07-04T21:55:41.786Z,3.92
2017-07-04T21:58:09.331Z,4.40
2017-07-04T22:00:36.866Z,3.62
2017-07-04T22:03:04.426Z,3.60
2017-07-04T22:05:31.957Z,3.33
2017-07-04T22:07:59.508Z,3.58
2017-07-04T22:10:27.073Z,3.85
2017-07-04T22:12:54.626Z,3.42
2017-07-04T22:15:22.164Z,3.97
2017-07-04T22:17:49.697Z,3.45
2017-07-04T22:20:17.246Z,3.75
2017-07-04T22:22:45.060Z,3.72
2017-07-04T22:25:12.643Z,3.97
2017-07-04T22:27:40.172Z,4.15
2017-07-04T22:30:07.726Z,4.07
2017-07-04T22:32:48.504Z,4.60
2017-07-04T22:35:16.050Z,3.80
2017-07-04T22:37:44.354Z,4.20
2017-07-04T22:40:11.905Z,4.68
2017-07-04T22:42:39.463Z,3.97
2017-07-04T22:45:07.031Z,4.10
2017-07-04T22:47:34.559Z,3.90
2017-07-04T22:50:02.877Z,3.58
2017-07-04T22:52:30.482Z,4.00
2017-07-04T22:55:01.045Z,3.30
2017-07-04T22:57:28.603Z,3.90
2017-07-04T22:59:56.160Z,4.03
2017-07-04T23:02:23.724Z,4.20
2017-07-04T23:04:51.250Z,4.22
2017-07-04T23:07:19.571Z,4.05
2017-07-04T23:09:47.090Z,4.35
2017-07-04T23:12:14.684Z,3.60
2017-07-04T23:14:42.219Z,4.00
2017-07-04T23:17:10.530Z,4.53
2017-07-04T23:19:38.055Z,3.97
2017-07-04T23:22:06.350Z,4.32
2017-07-04T23:24:33.959Z,4.85
2017-07-04T23:27:01.491Z,4.80
2017-07-04T23:29:29.046Z,4.40
2017-07-04T23:31:56.575Z,4.95
2017-07-04T23:34:24.888Z,4.50
2017-07-04T23:36:52.416Z,4.60
2017-07-04T23:39:20.750Z,4.03
2017-07-04T23:41:48.286Z,4.00
2017-07-04T23:44:15.835Z,4.40
2017-07-04T23:46:43.359Z,4.50
2017-07-04T23:49:11.672Z,4.20
2017-07-04T23:51:39.195Z,4.10
2017-07-04T23:54:07.486Z,4.60
2017-07-04T23:56:35.031Z,3.95
2017-07-04T23:59:03.333Z,4.18
